Pagrindinis puslapis
METAR-TAF:

METAR-TAF

Oro uostai :

Tegusigalpa, Hondūras

platuma: 14-03N, ilguma: 087-13W, Aukštis: 994 m

Dabartinis oras

Ataskaita buvo paskelbta 6 valandos ir 5 minutes, ne 23:00 UTC
Vėjas 8 kt iš Šiaurės Rytų
Temperatūra 32°C
Drėgmė 28%
Slėgis 1016 hPa
Matomumas 10 km arba daugiau
Mažai debesys ne aukštis 3600 ft

METAR: MHTG 062300Z 05008KT 9999 FEW036 32/11 Q1016 A3000 NOSIG

Laikas: 23:05 (05:05 UTC)

Prognozė

Ataskaita buvo paskelbta 6 valandos ir 40 minutes, ne 22:25 UTC
Prognozė galioja nuo 07 metu 00 UTC su 07 metu 24 UTC
Vėjas 5 kt iš Šiaurės/Šiaurės Rytų
Matomumas: 8000 m
Mažai debesys ne aukštis 3000 ft, Liūtiniai kamuoliniai debesys.
Mažai debesys ne aukštis 3400 ft
Tapsmas
nuo 07 metu 10 UTC su 07 metu 12 UTC
Vėjas kt iš Šiaurės
Matomumas: 3000 m
Mažai debesys ne aukštis 2800 ft
dūmai
Tapsmas
nuo 07 metu 15 UTC su 07 metu 17 UTC
Vėjas 9 kt iš Rytų/Šiaurės Rytų
Matomumas: 7000 m

TAF: MHTG 062225Z 0700/0724 02005KT 8000 FEW030CB FEW034 TX33/0721Z TN16/0712Z BECMG 0710/0712 00000KT 3000 FU FEW028 BECMG 0715/0717 07009KT 7000 NSC

Orai ataskaitas ir orų prognozės (METAR, TAF).

turimą stotys yra geltonos ir raudonos taškus žemėlapyje.

Perkelti pele per norėdami pamatyti stoties vardą.

Tada spustelėkite, norėdami matyti oro stebėjimo ir prognozės.

Norėdami pakeisti žemėlapį: spustelėkite ant žalios mygtukų su juodo kryžiaus žemyn,; žalią mygtuką su brūkšneliu, jei norite nutolinti; arba žalių rodyklių gretimoms žemėlapius.


METAR-TAF: